MET'MAP v2.0
soon released !

Expected late october,
this new version will be
more efficient, smarter,
and hosted on a brand new
server x3 powerfull...
...and still free !


Not compatible ?
Try the mobile version !

LOG IN : | Subscribe | Disclaimer | Who is Orbifly ? |
ICAO code :

TAF - EGUB RAF Benson - 14 Nov 2019 10:37 UTC
Data Sources :     NOAA   


- Airport Elevation : 226 ft
- IATA code : BEX
- No reported NOTAMs.


EGUB - RAF Benson

Latest METAR recorded : 2015/08/11 07:50 EGUB 110750Z 36003KT CAVOK 13/11 Q1019 BLU NOSIG
TAF AMD TAF EGUB
Valid from the 14 at 08:00 until the 14 at 15:00 UTC


140823Z 1408/1415 19006KT 3000 -DZ BKN004
BECMG 1408/1411 9999 NSW BKN008
BECMG 1412/1415 BKN015

Source NOAA
ATIS : +44 1491-837766 (x7524)


MET'MAP, your aeronautical weather chart ! - Copyright ORBIFLY December 2007

Programming & Development : Alexandra Zaïnal
Co-Developer : Marc-Olivier Méhu
Technical & hardware support : Manuel Goepfert
Concept & Financing : Baudouin d'Aumeries